createdAt,value
2022-10-11T00:00:54.190Z,11.88
2022-10-11T00:04:55.868Z,8.45
2022-10-11T00:08:57.423Z,7.07
2022-10-11T00:12:59.296Z,12.25
2022-10-11T00:17:01.008Z,8.25
2022-10-11T00:21:07.947Z,7.05
2022-10-11T00:25:10.848Z,7.97
2022-10-11T00:29:12.857Z,6.10
2022-10-11T00:33:14.275Z,9.75
2022-10-11T00:37:15.760Z,8.18
2022-10-11T00:41:17.736Z,10.02
2022-10-11T00:45:28.247Z,6.88
2022-10-11T00:49:37.655Z,6.03
2022-10-11T00:53:39.293Z,6.32
2022-10-11T00:57:43.920Z,7.38
2022-10-11T01:01:45.585Z,10.13
2022-10-11T01:05:47.604Z,7.82
2022-10-11T01:09:50.072Z,8.10
2022-10-11T01:14:04.999Z,8.95
2022-10-11T01:18:25.005Z,10.27
2022-10-11T01:23:03.803Z,7.28
2022-10-11T01:27:16.392Z,11.00
2022-10-11T01:31:23.392Z,8.23
2022-10-11T01:35:31.275Z,16.27
2022-10-11T01:39:38.924Z,9.82
2022-10-11T01:43:41.436Z,9.70
2022-10-11T01:47:45.685Z,9.90
2022-10-11T01:51:51.431Z,12.75
2022-10-11T01:56:18.962Z,14.25
2022-10-11T02:00:22.746Z,12.52
2022-10-11T02:04:35.099Z,12.57
2022-10-11T02:08:42.705Z,14.73
2022-10-11T02:12:49.419Z,16.42
2022-10-11T02:17:04.479Z,12.15
2022-10-11T02:21:08.805Z,11.55
2022-10-11T02:25:14.283Z,11.77
2022-10-11T02:29:16.591Z,14.80
2022-10-11T02:33:21.951Z,12.90
2022-10-11T02:37:36.971Z,12.60
2022-10-11T02:41:40.335Z,14.07
2022-10-11T02:45:44.268Z,10.70
2022-10-11T02:49:45.888Z,14.80
2022-10-11T02:53:47.288Z,15.73
2022-10-11T02:57:48.823Z,14.45
2022-10-11T03:01:50.413Z,10.68
2022-10-11T03:05:58.419Z,15.32
2022-10-11T03:10:00.118Z,15.70
2022-10-11T03:14:01.583Z,14.45
2022-10-11T03:18:03.240Z,16.40
2022-10-11T03:22:04.676Z,12.77
2022-10-11T03:26:06.796Z,15.88
2022-10-11T03:30:10.005Z,21.58
2022-10-11T03:34:11.570Z,15.38
2022-10-11T03:38:14.584Z,12.38
2022-10-11T03:42:17.018Z,12.55
2022-10-11T03:46:19.116Z,13.07
2022-10-11T03:50:20.667Z,15.85
2022-10-11T03:54:22.346Z,13.63
2022-10-11T03:58:25.013Z,16.25
2022-10-11T04:02:26.714Z,14.45
2022-10-11T04:06:28.150Z,17.67
2022-10-11T04:10:31.507Z,24.27
2022-10-11T04:14:32.922Z,25.85
2022-10-11T04:18:34.474Z,29.77
2022-10-11T04:22:36.435Z,37.03
2022-10-11T04:26:38.113Z,34.42
2022-10-11T04:30:39.543Z,36.90
2022-10-11T04:34:41.253Z,35.70
2022-10-11T04:38:42.843Z,41.42
2022-10-11T04:42:44.551Z,36.38
2022-10-11T04:46:46.682Z,34.83
2022-10-11T04:50:48.123Z,39.67
2022-10-11T04:54:49.630Z,43.75
2022-10-11T04:58:54.195Z,45.65
2022-10-11T05:02:55.683Z,37.58
2022-10-11T05:06:57.253Z,42.50
2022-10-11T05:11:06.760Z,39.50
2022-10-11T05:15:09.659Z,40.15
2022-10-11T05:19:11.194Z,40.72
2022-10-11T05:23:12.802Z,32.75
2022-10-11T05:27:14.225Z,48.45
2022-10-11T05:31:16.427Z,39.72
2022-10-11T05:35:17.910Z,51.33
2022-10-11T05:39:19.281Z,35.65
2022-10-11T05:43:20.928Z,36.53
2022-10-11T05:47:22.765Z,43.20
2022-10-11T05:51:24.231Z,39.45
2022-10-11T05:55:25.806Z,44.58
2022-10-11T05:59:27.664Z,49.33
2022-10-11T06:03:29.228Z,51.70
2022-10-11T06:07:33.601Z,45.90
2022-10-11T06:11:35.420Z,52.15
2022-10-11T06:15:39.043Z,45.67
2022-10-11T06:19:40.756Z,48.22
2022-10-11T06:23:42.261Z,59.15
2022-10-11T06:27:44.053Z,47.70
2022-10-11T06:31:45.600Z,45.70
2022-10-11T06:35:47.251Z,45.75
2022-10-11T06:39:50.384Z,44.70
2022-10-11T06:43:52.218Z,42.65
2022-10-11T06:47:53.847Z,45.15
2022-10-11T06:52:02.197Z,41.22
2022-10-11T06:56:13.193Z,52.80
2022-10-11T07:00:15.332Z,51.28
2022-10-11T07:04:16.719Z,47.30
2022-10-11T07:08:45.841Z,43.33
2022-10-11T07:12:47.302Z,43.58
2022-10-11T07:16:48.784Z,48.42
2022-10-11T07:20:50.487Z,42.30
2022-10-11T07:25:26.391Z,44.95
2022-10-11T07:29:27.883Z,45.83
2022-10-11T07:33:29.258Z,44.42
2022-10-11T07:37:30.867Z,51.47
2022-10-11T07:41:32.523Z,53.03
2022-10-11T07:45:33.933Z,41.47
2022-10-11T07:49:35.310Z,49.28
2022-10-11T07:53:44.773Z,51.42
2022-10-11T07:57:46.154Z,53.25
2022-10-11T08:01:47.734Z,52.47
2022-10-11T08:05:49.485Z,43.75
2022-10-11T08:09:50.931Z,37.00
2022-10-11T08:13:53.446Z,45.53
2022-10-11T08:17:54.815Z,50.88
2022-10-11T08:21:56.264Z,48.65
2022-10-11T08:25:58.305Z,45.50
2022-10-11T08:29:59.675Z,45.10
2022-10-11T08:34:01.064Z,41.88
2022-10-11T08:38:02.959Z,45.95
2022-10-11T08:42:15.760Z,37.15
2022-10-11T08:46:23.017Z,39.25
2022-10-11T08:50:24.544Z,47.58
2022-10-11T08:54:32.621Z,41.75
2022-10-11T08:59:09.311Z,38.10
2022-10-11T09:03:22.980Z,37.30
2022-10-11T09:08:16.544Z,40.50
2022-10-11T09:13:03.743Z,40.47
2022-10-11T09:17:23.995Z,42.17
2022-10-11T09:22:03.279Z,35.72
2022-10-11T09:26:23.080Z,45.92
2022-10-11T09:30:24.605Z,36.92
2022-10-11T09:34:32.228Z,47.50
2022-10-11T09:39:01.816Z,44.83
2022-10-11T09:43:05.960Z,34.45
2022-10-11T09:47:14.655Z,41.25
2022-10-11T09:51:20.336Z,43.08
2022-10-11T09:55:32.319Z,41.72
2022-10-11T09:59:35.173Z,44.67
2022-10-11T10:03:43.975Z,43.42
2022-10-11T10:08:05.488Z,41.80
2022-10-11T10:12:21.546Z,45.03
2022-10-11T10:16:28.804Z,45.63
2022-10-11T10:20:33.427Z,34.70
2022-10-11T10:24:38.357Z,38.70
2022-10-11T10:29:05.261Z,44.40
2022-10-11T10:33:10.907Z,40.17
2022-10-11T10:37:20.146Z,43.83
2022-10-11T10:41:21.617Z,34.80
2022-10-11T10:45:29.324Z,43.58
2022-10-11T10:49:54.066Z,37.25
2022-10-11T10:54:02.118Z,43.17
2022-10-11T10:58:15.052Z,37.08
2022-10-11T11:02:41.758Z,34.10
2022-10-11T11:06:54.840Z,37.08
2022-10-11T11:11:39.812Z,35.75
2022-10-11T11:16:02.927Z,38.85
2022-10-11T11:20:23.251Z,30.15
2022-10-11T11:24:48.985Z,42.10
2022-10-11T11:29:05.758Z,36.42
2022-10-11T11:33:29.958Z,35.53
2022-10-11T11:43:26.777Z,36.53
2022-10-11T11:48:37.158Z,33.40
2022-10-11T12:02:31.929Z,32.95
2022-10-11T12:07:04.047Z,27.90
2022-10-11T12:11:07.242Z,30.85
2022-10-11T12:20:21.311Z,28.35
2022-10-11T12:24:29.399Z,32.10
2022-10-11T12:29:29.060Z,29.35
2022-10-11T12:33:49.723Z,30.75
2022-10-11T12:38:15.934Z,32.60
2022-10-11T12:42:32.461Z,22.10
2022-10-11T12:47:18.462Z,28.40
2022-10-11T12:57:02.523Z,26.00
2022-10-11T13:01:04.348Z,24.13
2022-10-11T13:05:24.954Z,22.52
2022-10-11T13:10:27.668Z,24.13
2022-10-11T13:14:31.447Z,24.42
2022-10-11T13:18:33.082Z,19.63
2022-10-11T13:22:50.999Z,22.83
2022-10-11T13:26:57.246Z,18.90
2022-10-11T13:31:11.074Z,19.92
2022-10-11T13:35:35.525Z,19.77
2022-10-11T13:39:39.280Z,22.17
2022-10-11T13:43:40.928Z,21.08
2022-10-11T13:48:01.869Z,20.27
2022-10-11T13:52:25.386Z,24.63
2022-10-11T13:56:28.301Z,20.73
2022-10-11T14:04:39.698Z,20.83
2022-10-11T14:08:47.247Z,19.85
2022-10-11T14:13:04.350Z,24.58
2022-10-11T14:17:16.282Z,18.17
2022-10-11T14:21:20.831Z,23.02
2022-10-11T14:25:22.678Z,19.70
2022-10-11T14:29:28.679Z,18.70
2022-10-11T14:33:30.165Z,18.75
2022-10-11T14:37:31.848Z,18.70
2022-10-11T14:41:33.345Z,22.52
2022-10-11T14:45:35.165Z,19.00
2022-10-11T14:49:37.669Z,14.95
2022-10-11T14:53:42.322Z,22.35
2022-10-11T14:57:44.679Z,17.67
2022-10-11T15:01:51.742Z,20.10
2022-10-11T15:05:53.299Z,17.30
2022-10-11T15:09:55.113Z,24.25
2022-10-11T15:13:56.583Z,16.95
2022-10-11T15:17:59.943Z,22.73
2022-10-11T15:22:02.905Z,19.98
2022-10-11T15:26:05.050Z,19.10
2022-10-11T15:30:41.423Z,27.08
2022-10-11T15:34:44.540Z,25.52
2022-10-11T15:38:46.852Z,16.17
2022-10-11T15:42:50.398Z,20.05
2022-10-11T15:46:52.443Z,22.75
2022-10-11T15:50:54.563Z,17.77
2022-10-11T15:54:56.386Z,18.00
2022-10-11T15:58:58.097Z,22.70
2022-10-11T16:02:59.732Z,18.95
2022-10-11T16:07:01.502Z,20.92
2022-10-11T16:11:05.161Z,22.08
2022-10-11T16:15:08.047Z,20.40
2022-10-11T16:19:09.579Z,20.02
2022-10-11T16:23:12.233Z,20.10
2022-10-11T16:27:17.959Z,19.77
2022-10-11T16:31:21.043Z,19.70
2022-10-11T16:35:22.864Z,22.55
2022-10-11T16:39:24.543Z,19.00
2022-10-11T16:43:27.235Z,16.30
2022-10-11T16:47:28.819Z,22.50
2022-10-11T16:51:30.332Z,27.60
2022-10-11T16:55:31.949Z,21.70
2022-10-11T16:59:33.602Z,21.95
2022-10-11T17:03:35.147Z,24.98
2022-10-11T17:07:36.806Z,22.20
2022-10-11T17:11:38.429Z,24.73
2022-10-11T17:15:40.427Z,29.90
2022-10-11T17:19:45.367Z,20.77
2022-10-11T17:23:49.059Z,21.45
2022-10-11T17:27:50.695Z,23.88
2022-10-11T17:31:53.575Z,27.65
2022-10-11T17:35:59.675Z,23.42
2022-10-11T17:40:01.133Z,22.00
2022-10-11T17:44:03.333Z,26.35
2022-10-11T17:48:04.873Z,26.25
2022-10-11T17:52:06.303Z,26.98
2022-10-11T17:56:17.271Z,28.92
2022-10-11T18:00:18.787Z,22.42
2022-10-11T18:04:21.778Z,33.15
2022-10-11T18:08:23.231Z,25.08
2022-10-11T18:12:25.998Z,25.40
2022-10-11T18:16:29.509Z,21.33
2022-10-11T18:20:33.552Z,25.70
2022-10-11T18:24:35.155Z,29.73
2022-10-11T18:28:36.694Z,26.90
2022-10-11T18:32:38.654Z,32.70
2022-10-11T18:36:42.123Z,25.83
2022-10-11T18:40:47.169Z,29.45
2022-10-11T18:44:48.982Z,30.88
2022-10-11T18:48:53.371Z,27.60
2022-10-11T18:52:54.809Z,28.85
2022-10-11T18:56:56.296Z,24.85
2022-10-11T19:01:11.973Z,25.25
2022-10-11T19:05:13.713Z,22.52
2022-10-11T19:09:21.475Z,23.55
2022-10-11T19:17:24.773Z,26.90
2022-10-11T19:21:26.383Z,27.90
2022-10-11T19:25:28.012Z,30.73
2022-10-11T19:29:30.632Z,28.30
2022-10-11T19:33:33.623Z,29.52
2022-10-11T19:37:38.001Z,27.13
2022-10-11T19:41:39.992Z,33.30
2022-10-11T19:45:41.549Z,31.73
2022-10-11T19:49:43.103Z,27.48
2022-10-11T19:53:45.928Z,27.15
2022-10-11T19:57:47.474Z,37.40
2022-10-11T20:01:52.751Z,31.13
2022-10-11T20:05:55.299Z,28.02
2022-10-11T20:09:56.862Z,32.70
2022-10-11T20:13:58.467Z,26.67
2022-10-11T20:18:00.678Z,31.35
2022-10-11T20:22:02.158Z,35.22
2022-10-11T20:26:18.242Z,29.13
2022-10-11T20:30:20.202Z,29.30
2022-10-11T20:34:21.847Z,31.48
2022-10-11T20:38:24.000Z,30.55
2022-10-11T20:42:29.767Z,26.13
2022-10-11T20:46:37.529Z,29.50
2022-10-11T20:50:45.725Z,31.10
2022-10-11T20:54:47.147Z,35.15
2022-10-11T20:58:53.343Z,31.63
2022-10-11T21:02:54.756Z,28.75
2022-10-11T21:06:56.293Z,29.83
2022-10-11T21:10:58.380Z,31.30
2022-10-11T21:14:59.771Z,27.02
2022-10-11T21:19:02.062Z,31.27
2022-10-11T21:23:03.687Z,31.38
2022-10-11T21:27:05.126Z,23.70
2022-10-11T21:31:11.822Z,32.20
2022-10-11T21:35:13.340Z,28.98
2022-10-11T21:39:15.244Z,30.33
2022-10-11T21:43:17.122Z,30.20
2022-10-11T21:47:18.545Z,30.25
2022-10-11T21:51:24.756Z,31.35
2022-10-11T21:55:27.219Z,31.67
2022-10-11T21:59:28.796Z,29.25
2022-10-11T22:03:31.054Z,27.92
2022-10-11T22:07:32.621Z,31.58
2022-10-11T22:11:34.711Z,31.40
2022-10-11T22:15:36.896Z,33.53
2022-10-11T22:19:38.549Z,33.13
2022-10-11T22:23:40.885Z,27.08
2022-10-11T22:27:42.324Z,30.30
2022-10-11T22:31:43.992Z,35.40
2022-10-11T22:35:45.472Z,29.63
2022-10-11T22:39:46.839Z,28.35
2022-10-11T22:43:48.610Z,28.35
2022-10-11T22:47:50.008Z,26.83
2022-10-11T22:51:51.647Z,31.15
2022-10-11T22:55:53.150Z,33.22
2022-10-11T22:59:54.707Z,25.17
2022-10-11T23:03:56.633Z,28.42
2022-10-11T23:07:58.251Z,28.60
2022-10-11T23:12:00.041Z,31.35
2022-10-11T23:16:08.705Z,29.08
2022-10-11T23:20:10.704Z,29.02
2022-10-11T23:24:12.299Z,32.95
2022-10-11T23:28:13.794Z,30.13
2022-10-11T23:32:15.246Z,35.92
2022-10-11T23:36:18.695Z,36.85
2022-10-11T23:40:20.725Z,35.55
2022-10-11T23:44:22.334Z,27.73
2022-10-11T23:48:23.732Z,34.13
2022-10-11T23:52:25.303Z,27.60
2022-10-11T23:56:26.876Z,27.17
